createdAt,value
2019-01-23T10:34:50.628Z,39.38
2019-01-23T10:35:50.589Z,39.38
2019-01-23T10:36:50.615Z,33.75
2019-01-23T10:37:50.567Z,39.38
2019-01-23T10:38:50.559Z,39.38
2019-01-23T10:39:50.596Z,39.38
2019-01-23T10:40:50.531Z,39.38
2019-01-23T10:41:50.523Z,45.00
2019-01-23T10:42:50.516Z,45.00
2019-01-23T10:43:50.502Z,45.00
2019-01-23T10:44:50.501Z,45.00
2019-01-23T10:45:50.497Z,39.38
2019-01-23T10:46:50.467Z,39.38
2019-01-23T10:47:56.056Z,39.38
2019-01-23T10:48:51.442Z,39.38
2019-01-23T10:49:50.432Z,39.38
2019-01-23T10:50:50.455Z,39.38
2019-01-23T10:51:50.449Z,39.38
2019-01-23T10:52:50.416Z,39.38
2019-01-23T10:53:50.421Z,39.38
2019-01-23T10:54:50.384Z,39.38
2019-01-23T10:55:50.373Z,39.38
2019-01-23T10:56:50.369Z,39.38
2019-01-23T10:57:50.369Z,39.38
2019-01-23T10:58:50.344Z,39.38
2019-01-23T10:59:50.329Z,39.38
2019-01-23T11:00:50.320Z,39.38
2019-01-23T11:01:50.322Z,39.38
2019-01-23T11:02:50.299Z,39.38
2019-01-23T11:03:50.309Z,39.38
2019-01-23T11:04:50.279Z,45.00
2019-01-23T11:05:50.294Z,45.00
2019-01-23T11:06:50.292Z,45.00
2019-01-23T11:07:50.241Z,45.00
2019-01-23T11:08:50.233Z,45.00
2019-01-23T11:09:50.236Z,50.62
2019-01-23T11:10:50.227Z,50.62
2019-01-23T11:11:50.197Z,50.62
2019-01-23T11:12:50.198Z,50.62
2019-01-23T11:13:50.174Z,50.62
2019-01-23T11:14:50.166Z,50.62
2019-01-23T11:15:50.182Z,50.62
2019-01-23T11:16:50.148Z,50.62
2019-01-23T11:17:50.187Z,50.62
2019-01-23T11:18:50.122Z,50.62
2019-01-23T11:19:50.111Z,50.62
2019-01-23T11:20:50.100Z,50.62
2019-01-23T11:21:50.104Z,50.62
2019-01-23T11:22:50.083Z,50.62
2019-01-23T11:23:50.065Z,50.62
2019-01-23T11:24:50.066Z,56.25
2019-01-23T11:25:50.045Z,56.25
2019-01-23T11:26:50.037Z,50.62
2019-01-23T11:27:50.037Z,50.62
2019-01-23T11:28:50.009Z,56.25
2019-01-23T11:29:50.004Z,56.25
2019-01-23T11:30:50.017Z,50.62
2019-01-23T11:31:49.992Z,50.62
2019-01-23T11:32:49.992Z,50.62
2019-01-23T11:33:49.958Z,50.62
2019-01-23T11:34:49.947Z,50.62
2019-01-23T11:35:49.953Z,50.62
2019-01-23T11:36:49.934Z,50.62
2019-01-23T11:37:49.920Z,50.62
2019-01-23T11:38:49.948Z,50.62
2019-01-23T11:39:49.915Z,50.62
2019-01-23T11:40:49.958Z,50.62
2019-01-23T11:41:49.873Z,50.62
2019-01-23T11:42:49.881Z,50.62
2019-01-23T11:43:49.882Z,50.62
2019-01-23T11:44:49.845Z,50.62
2019-01-23T11:45:49.830Z,50.62
2019-01-23T11:46:49.820Z,50.62
2019-01-23T11:47:49.807Z,50.62
2019-01-23T11:48:49.799Z,50.62
2019-01-23T11:49:49.809Z,50.62
2019-01-23T11:50:49.776Z,50.62
2019-01-23T11:51:49.765Z,50.62
2019-01-23T11:52:49.750Z,56.25
2019-01-23T11:53:49.747Z,56.25
2019-01-23T11:54:49.729Z,56.25
2019-01-23T11:55:49.738Z,56.25
2019-01-23T11:56:49.735Z,56.25
2019-01-23T11:57:49.699Z,56.25
2019-01-23T11:58:49.724Z,56.25
2019-01-23T11:59:49.674Z,56.25
2019-01-23T12:00:49.668Z,56.25
2019-01-23T12:01:49.672Z,56.25
2019-01-23T12:02:49.684Z,61.88
2019-01-23T12:03:49.654Z,56.25
2019-01-23T12:04:49.625Z,56.25
2019-01-23T12:05:49.614Z,56.25
2019-01-23T12:06:49.602Z,56.25
2019-01-23T12:07:49.594Z,56.25
2019-01-23T12:08:49.587Z,56.25
2019-01-23T12:09:49.621Z,56.25
2019-01-23T12:10:49.553Z,56.25
2019-01-23T12:11:49.546Z,61.88
2019-01-23T12:12:49.540Z,56.25
2019-01-23T12:13:49.536Z,56.25
2019-01-23T12:14:49.535Z,56.25
2019-01-23T12:15:49.529Z,56.25
2019-01-23T12:16:49.500Z,50.62
2019-01-23T12:17:49.482Z,50.62
2019-01-23T12:18:49.480Z,50.62
2019-01-23T12:19:49.459Z,50.62
2019-01-23T12:20:49.460Z,56.25
2019-01-23T12:21:49.436Z,50.62
2019-01-23T12:22:49.423Z,45.00
2019-01-23T12:23:49.415Z,39.38
2019-01-23T12:24:49.424Z,39.38
2019-01-23T12:25:49.412Z,39.38
2019-01-23T12:26:49.384Z,39.38
2019-01-23T12:27:49.378Z,45.00
2019-01-23T12:28:49.371Z,50.62
2019-01-23T12:29:49.347Z,50.62
2019-01-23T12:30:49.339Z,45.00
2019-01-23T12:31:49.339Z,45.00
2019-01-23T12:32:49.343Z,45.00
2019-01-23T12:33:49.349Z,39.38
2019-01-23T12:34:49.296Z,39.38
2019-01-23T12:35:49.286Z,39.38
2019-01-23T12:36:49.291Z,39.38
2019-01-23T12:37:49.264Z,45.00
2019-01-23T12:38:49.250Z,45.00
2019-01-23T12:39:49.247Z,45.00
2019-01-23T12:40:49.259Z,50.62
2019-01-23T12:41:49.236Z,50.62
2019-01-23T12:42:49.210Z,50.62
2019-01-23T12:43:49.200Z,56.25
2019-01-23T12:44:49.185Z,56.25
2019-01-23T12:45:49.182Z,56.25
2019-01-23T12:46:49.176Z,61.88
2019-01-23T12:47:49.178Z,67.50
2019-01-23T12:48:49.150Z,67.50
2019-01-23T12:49:49.151Z,73.12
2019-01-23T12:50:49.122Z,73.12
2019-01-23T12:51:49.112Z,67.50
2019-01-23T12:52:49.100Z,67.50
2019-01-23T12:53:49.122Z,73.12
2019-01-23T12:54:49.083Z,73.12
2019-01-23T12:55:49.072Z,73.12
2019-01-23T12:56:49.055Z,78.75
2019-01-23T12:57:49.044Z,78.75
2019-01-23T12:58:49.049Z,84.38
2019-01-23T12:59:49.073Z,90.00
2019-01-23T13:00:49.014Z,84.38
2019-01-23T13:01:49.019Z,78.75
2019-01-23T13:02:48.996Z,73.12
2019-01-23T13:03:48.984Z,67.50
2019-01-23T13:04:48.972Z,67.50
2019-01-23T13:05:48.972Z,67.50
2019-01-23T13:06:48.958Z,61.88
2019-01-23T13:07:48.937Z,56.25
2019-01-23T13:08:48.923Z,50.62
2019-01-23T13:09:48.912Z,50.62
2019-01-23T13:10:48.925Z,50.62
2019-01-23T13:11:48.904Z,50.62
2019-01-23T13:12:48.889Z,50.62
2019-01-23T13:13:48.894Z,50.62
2019-01-23T13:14:48.856Z,50.62
2019-01-23T13:15:48.847Z,50.62
2019-01-23T13:16:48.864Z,45.00
2019-01-23T13:17:48.824Z,45.00
2019-01-23T13:18:48.825Z,45.00
2019-01-23T13:19:48.804Z,45.00
2019-01-23T13:20:48.793Z,45.00
2019-01-23T13:21:48.796Z,45.00
2019-01-23T13:22:48.791Z,39.38
2019-01-23T13:23:48.771Z,39.38
2019-01-23T13:24:48.752Z,39.38
2019-01-23T13:25:48.761Z,39.38
2019-01-23T13:26:48.733Z,39.38
2019-01-23T13:27:48.735Z,45.00
2019-01-23T13:28:48.722Z,45.00
2019-01-23T13:29:48.698Z,45.00
2019-01-23T13:30:48.689Z,50.62
2019-01-23T13:31:49.194Z,50.62
2019-01-23T13:32:48.662Z,50.62
2019-01-23T13:33:48.744Z,50.62
2019-01-23T13:34:48.651Z,50.62
2019-01-23T13:35:48.648Z,50.62
2019-01-23T13:36:48.660Z,50.62
2019-01-23T13:37:48.640Z,50.62
2019-01-23T13:38:48.604Z,50.62
2019-01-23T13:39:48.596Z,50.62
2019-01-23T13:40:48.590Z,50.62
2019-01-23T13:41:48.564Z,50.62
2019-01-23T13:42:48.562Z,50.62
2019-01-23T13:43:48.549Z,50.62
2019-01-23T13:44:48.529Z,50.62
2019-01-23T13:45:48.534Z,45.00
2019-01-23T13:46:48.507Z,45.00
2019-01-23T13:47:48.495Z,45.00
2019-01-23T13:48:48.485Z,45.00
2019-01-23T13:49:48.483Z,45.00
2019-01-23T13:50:48.468Z,45.00
2019-01-23T13:51:48.474Z,45.00
2019-01-23T13:52:48.480Z,45.00
2019-01-23T13:53:48.460Z,45.00
2019-01-23T13:54:48.422Z,45.00
2019-01-23T13:55:48.413Z,45.00
2019-01-23T13:56:48.399Z,45.00
2019-01-23T13:57:48.397Z,45.00
2019-01-23T13:58:48.396Z,45.00
2019-01-23T13:59:48.382Z,45.00
2019-01-23T14:00:48.366Z,45.00
2019-01-23T14:01:48.343Z,45.00
2019-01-23T14:02:48.331Z,45.00
2019-01-23T14:03:48.325Z,45.00
2019-01-23T14:04:48.325Z,45.00
2019-01-23T14:05:48.307Z,45.00
2019-01-23T14:06:48.291Z,45.00
2019-01-23T14:07:48.275Z,45.00
2019-01-23T14:08:48.267Z,45.00
2019-01-23T14:09:48.254Z,45.00
2019-01-23T14:10:48.255Z,45.00
2019-01-23T14:11:48.245Z,45.00
2019-01-23T14:12:48.229Z,45.00
2019-01-23T14:13:48.216Z,45.00
2019-01-23T14:14:48.206Z,45.00
2019-01-23T14:15:48.209Z,39.38
2019-01-23T14:16:48.181Z,33.75
2019-01-23T14:17:48.167Z,28.12
2019-01-23T14:18:48.156Z,28.12
2019-01-23T14:19:48.193Z,28.12
2019-01-23T14:20:48.135Z,28.12
2019-01-23T14:21:48.134Z,22.50
2019-01-23T14:22:48.111Z,22.50
2019-01-23T14:23:48.105Z,22.50
2019-01-23T14:24:48.101Z,22.50
2019-01-23T14:25:48.506Z,22.50
2019-01-23T14:26:48.088Z,22.50
2019-01-23T14:27:48.064Z,22.50
2019-01-23T14:28:48.060Z,22.50
2019-01-23T14:29:48.036Z,22.50
2019-01-23T14:30:48.026Z,22.50
2019-01-23T14:31:48.016Z,22.50
2019-01-23T14:32:48.030Z,28.12
2019-01-23T14:33:48.006Z,28.12
2019-01-23T14:34:47.983Z,28.12
2019-01-23T14:35:47.972Z,28.12
2019-01-23T14:36:47.969Z,28.12
2019-01-23T14:37:47.950Z,28.12
2019-01-23T14:38:47.956Z,28.12
2019-01-23T14:39:47.929Z,28.12
2019-01-23T14:40:47.919Z,33.75
2019-01-23T14:41:47.911Z,33.75
2019-01-23T14:42:47.901Z,33.75
2019-01-23T14:43:47.903Z,33.75
2019-01-23T14:44:47.903Z,33.75
2019-01-23T14:45:47.882Z,33.75
2019-01-23T14:46:47.869Z,33.75
2019-01-23T14:47:47.843Z,28.12
2019-01-23T14:48:47.840Z,28.12
2019-01-23T14:49:47.837Z,28.12
2019-01-23T14:50:47.823Z,28.12
2019-01-23T14:51:47.815Z,28.12
2019-01-23T14:52:47.812Z,28.12
2019-01-23T14:53:47.779Z,28.12
2019-01-23T14:54:47.785Z,22.50
2019-01-23T14:55:47.770Z,28.12
2019-01-23T14:56:47.744Z,22.50
2019-01-23T14:57:47.742Z,22.50
2019-01-23T14:58:47.751Z,22.50
2019-01-23T14:59:47.717Z,22.50
2019-01-23T15:00:47.713Z,22.50
2019-01-23T15:01:47.695Z,22.50
2019-01-23T15:02:47.697Z,22.50
2019-01-23T15:03:47.677Z,22.50
2019-01-23T15:04:47.661Z,22.50
2019-01-23T15:05:47.705Z,16.88
2019-01-23T15:06:47.640Z,16.88
2019-01-23T15:07:47.630Z,16.88
2019-01-23T15:08:47.619Z,16.88
2019-01-23T15:09:47.602Z,16.88
2019-01-23T15:10:47.592Z,16.88
2019-01-23T15:11:47.599Z,16.88
2019-01-23T15:12:47.569Z,16.88
2019-01-23T15:13:47.563Z,16.88
2019-01-23T15:14:47.558Z,16.88
2019-01-23T15:15:47.555Z,16.88
2019-01-23T15:16:47.539Z,16.88
2019-01-23T15:17:47.516Z,11.25
2019-01-23T15:18:47.509Z,11.25
2019-01-23T15:19:47.505Z,11.25
2019-01-23T15:20:47.486Z,11.25
2019-01-23T15:21:47.495Z,11.25
2019-01-23T15:22:47.481Z,11.25
2019-01-23T15:23:47.457Z,11.25
2019-01-23T15:24:47.470Z,11.25
2019-01-23T15:25:47.440Z,11.25
2019-01-23T15:26:47.417Z,11.25
2019-01-23T15:27:47.406Z,11.25
2019-01-23T15:28:47.403Z,11.25
2019-01-23T15:29:47.382Z,5.62
2019-01-23T15:30:47.380Z,5.62
2019-01-23T15:31:47.367Z,5.62
2019-01-23T15:32:47.367Z,5.62
2019-01-23T15:33:47.379Z,5.62
2019-01-23T15:34:47.327Z,5.62
2019-01-23T15:35:47.319Z,5.62
2019-01-23T15:36:47.326Z,5.62
2019-01-23T15:37:47.336Z,5.62
2019-01-23T15:38:47.988Z,5.62
2019-01-23T15:39:47.316Z,5.62
2019-01-23T15:40:47.281Z,5.62
2019-01-23T15:41:47.254Z,5.62
2019-01-23T15:42:47.245Z,5.62
2019-01-23T15:43:47.236Z,5.62
2019-01-23T15:44:47.225Z,5.62
2019-01-23T15:45:47.221Z,5.62
2019-01-23T15:46:47.199Z,5.62
2019-01-23T15:47:47.191Z,5.62
2019-01-23T15:48:47.199Z,5.62
2019-01-23T15:49:47.167Z,0.00
2019-01-23T15:50:47.169Z,0.00
2019-01-23T15:51:47.147Z,0.00
2019-01-23T15:52:47.147Z,0.00
2019-01-23T15:53:47.124Z,0.00
2019-01-23T15:54:47.154Z,0.00
2019-01-23T15:55:47.105Z,0.00
2019-01-23T15:56:47.105Z,0.00
2019-01-23T15:57:47.092Z,0.00
2019-01-23T15:58:47.070Z,0.00
2019-01-23T15:59:47.079Z,0.00
2019-01-23T16:00:47.052Z,0.00
2019-01-23T16:01:47.044Z,0.00
2019-01-23T16:02:48.547Z,0.00
2019-01-23T16:03:47.033Z,0.00
2019-01-23T16:04:47.010Z,0.00
2019-01-23T16:05:47.023Z,0.00
2019-01-23T16:06:47.002Z,0.00
2019-01-23T16:07:46.978Z,0.00
2019-01-23T16:08:46.969Z,0.00
2019-01-23T16:09:46.960Z,0.00
2019-01-23T16:10:46.952Z,0.00
2019-01-23T16:11:46.942Z,0.00
2019-01-23T16:12:46.919Z,0.00
2019-01-23T16:13:46.928Z,0.00
2019-01-23T16:14:46.898Z,0.00
2019-01-23T16:15:46.904Z,0.00
2019-01-23T16:16:46.885Z,0.00
2019-01-23T16:17:46.886Z,0.00
2019-01-23T16:18:46.867Z,0.00
2019-01-23T16:19:46.847Z,0.00
2019-01-23T16:20:46.834Z,0.00
2019-01-23T16:21:46.827Z,0.00
2019-01-23T16:22:46.815Z,0.00
2019-01-23T16:23:46.827Z,0.00
2019-01-23T16:24:46.794Z,0.00
2019-01-23T16:25:46.816Z,0.00
2019-01-23T16:26:46.771Z,0.00
2019-01-23T16:27:46.759Z,0.00
2019-01-23T16:28:46.750Z,0.00
2019-01-23T16:29:46.757Z,0.00
2019-01-23T16:30:46.728Z,0.00
2019-01-23T16:31:46.722Z,0.00
2019-01-23T16:32:46.739Z,0.00
2019-01-23T16:33:46.697Z,0.00
2019-01-23T16:34:46.685Z,0.00
2019-01-23T16:35:47.275Z,0.00
2019-01-23T16:36:46.665Z,0.00
2019-01-23T16:37:46.652Z,0.00
2019-01-23T16:38:46.648Z,0.00
2019-01-23T16:39:46.630Z,0.00
2019-01-23T16:40:46.639Z,0.00
2019-01-23T16:41:46.612Z,0.00
2019-01-23T16:42:46.611Z,0.00
2019-01-23T16:43:46.587Z,0.00
2019-01-23T16:44:46.576Z,0.00
2019-01-23T16:45:46.586Z,0.00
2019-01-23T16:46:46.571Z,0.00
2019-01-23T16:47:46.549Z,0.00
2019-01-23T16:48:46.536Z,0.00
2019-01-23T16:49:46.527Z,0.00
2019-01-23T16:50:46.520Z,0.00
2019-01-23T16:51:51.345Z,0.00
2019-01-23T16:52:47.491Z,0.00
2019-01-23T16:53:46.488Z,0.00
2019-01-23T16:54:46.474Z,0.00
2019-01-23T16:55:46.484Z,0.00
2019-01-23T16:56:46.452Z,0.00
2019-01-23T16:57:46.449Z,0.00
2019-01-23T16:58:46.428Z,0.00
2019-01-23T16:59:46.420Z,0.00
2019-01-23T17:00:46.413Z,0.00
2019-01-23T17:01:46.413Z,0.00
2019-01-23T17:02:46.386Z,0.00
2019-01-23T17:03:46.386Z,0.00
2019-01-23T17:04:46.364Z,0.00
2019-01-23T17:05:46.371Z,0.00
2019-01-23T17:06:46.348Z,0.00
2019-01-23T17:07:46.332Z,0.00
2019-01-23T17:08:46.321Z,0.00
2019-01-23T17:09:46.319Z,0.00
2019-01-23T17:10:46.310Z,0.00
2019-01-23T17:11:46.306Z,0.00
2019-01-23T17:12:46.283Z,0.00
2019-01-23T17:13:46.269Z,0.00
2019-01-23T17:14:46.261Z,0.00
2019-01-23T17:15:46.249Z,0.00
2019-01-23T17:16:46.265Z,0.00
2019-01-23T17:17:46.229Z,0.00
2019-01-23T17:18:46.223Z,0.00
2019-01-23T17:19:46.209Z,0.00
2019-01-23T17:20:46.195Z,0.00
2019-01-23T17:21:46.184Z,0.00
2019-01-23T17:22:46.192Z,0.00
2019-01-23T17:23:46.182Z,0.00
2019-01-23T17:24:46.152Z,0.00
2019-01-23T17:25:46.141Z,0.00
2019-01-23T17:26:46.207Z,0.00
2019-01-23T17:27:46.139Z,0.00
2019-01-23T17:28:46.452Z,0.00
2019-01-23T17:29:46.130Z,0.00
2019-01-23T17:30:46.094Z,0.00
2019-01-23T17:31:46.080Z,0.00
2019-01-23T17:32:46.069Z,0.00
2019-01-23T17:33:46.407Z,0.00
2019-01-23T17:34:46.065Z,0.00
2019-01-23T17:35:46.038Z,0.00
2019-01-23T17:36:46.025Z,0.00
2019-01-23T17:37:46.026Z,0.00
2019-01-23T17:38:46.016Z,0.00
2019-01-23T17:39:46.009Z,0.00
2019-01-23T17:40:45.996Z,0.00
2019-01-23T17:41:45.980Z,0.00
2019-01-23T17:42:45.991Z,0.00
2019-01-23T17:43:45.952Z,0.00
2019-01-23T17:44:45.944Z,0.00
2019-01-23T17:45:45.959Z,0.00
2019-01-23T17:46:45.953Z,0.00
2019-01-23T17:47:45.933Z,0.00
2019-01-23T17:48:45.901Z,0.00
2019-01-23T17:49:45.905Z,0.00
2019-01-23T17:50:45.884Z,0.00
2019-01-23T17:51:46.301Z,0.00
2019-01-23T17:52:47.640Z,0.00
2019-01-23T17:53:46.051Z,0.00
2019-01-23T17:54:45.835Z,0.00
2019-01-23T17:55:45.849Z,0.00
2019-01-23T17:56:45.820Z,0.00
2019-01-23T17:57:45.817Z,0.00
2019-01-23T17:58:45.805Z,0.00
2019-01-23T17:59:45.814Z,0.00
2019-01-23T18:00:45.777Z,0.00
2019-01-23T18:01:45.761Z,0.00
2019-01-23T18:02:52.497Z,0.00
2019-01-23T18:03:46.764Z,0.00
2019-01-23T18:04:45.737Z,0.00
2019-01-23T18:05:51.119Z,0.00
2019-01-23T18:06:46.720Z,0.00
2019-01-23T18:07:45.776Z,0.00
2019-01-23T18:08:45.697Z,0.00
2019-01-23T18:09:45.703Z,0.00
2019-01-23T18:10:45.669Z,0.00
2019-01-23T18:11:45.662Z,0.00
2019-01-23T18:12:45.648Z,0.00
2019-01-23T18:13:45.634Z,0.00
2019-01-23T18:14:49.164Z,0.00
2019-01-23T18:15:45.625Z,0.00
2019-01-23T18:16:45.642Z,0.00
2019-01-23T18:17:45.610Z,0.00
2019-01-23T18:18:45.605Z,0.00
2019-01-23T18:19:45.574Z,0.00
2019-01-23T18:20:45.581Z,0.00
2019-01-23T18:21:45.555Z,0.00
2019-01-23T18:22:45.556Z,0.00
2019-01-23T18:23:45.549Z,0.00
2019-01-23T18:24:45.517Z,0.00
2019-01-23T18:25:45.509Z,0.00
2019-01-23T18:26:45.513Z,0.00
2019-01-23T18:27:45.524Z,0.00
2019-01-23T18:28:45.530Z,0.00
2019-01-23T18:29:45.477Z,0.00
2019-01-23T18:30:45.489Z,0.00
2019-01-23T18:31:45.446Z,0.00
2019-01-23T18:32:45.438Z,0.00
2019-01-23T18:33:45.433Z,0.00
2019-01-23T18:34:45.433Z,0.00
2019-01-23T18:35:45.399Z,0.00
2019-01-23T18:36:45.388Z,0.00
2019-01-23T18:37:45.396Z,0.00
2019-01-23T18:39:39.565Z,0.00
2019-01-23T18:40:39.558Z,0.00
2019-01-23T18:41:39.539Z,0.00
2019-01-23T18:42:39.501Z,0.00
2019-01-23T18:43:39.594Z,0.00
2019-01-23T18:44:39.495Z,0.00
2019-01-23T18:45:39.468Z,0.00
2019-01-23T18:46:39.456Z,0.00
2019-01-23T18:47:39.450Z,0.00
2019-01-23T18:48:39.448Z,0.00
2019-01-23T18:49:39.485Z,0.00
2019-01-23T18:50:39.432Z,0.00
2019-01-23T18:51:46.962Z,0.00
2019-01-23T18:52:46.978Z,0.00
2019-01-23T18:53:48.103Z,0.00
2019-01-23T18:54:46.949Z,0.00
2019-01-23T18:55:46.924Z,0.00
2019-01-23T18:56:39.368Z,0.00
2019-01-23T18:57:39.358Z,0.00
2019-01-23T18:58:39.527Z,0.00
2019-01-23T18:59:39.330Z,0.00
2019-01-23T19:00:39.323Z,0.00
2019-01-23T19:01:39.294Z,0.00
2019-01-23T19:02:39.329Z,0.00
2019-01-23T19:03:39.271Z,0.00
2019-01-23T19:04:39.276Z,0.00
2019-01-23T19:05:39.251Z,0.00
2019-01-23T19:06:39.250Z,0.00
2019-01-23T19:07:39.230Z,0.00
2019-01-23T19:08:39.248Z,0.00
2019-01-23T19:09:39.205Z,0.00
2019-01-23T19:10:39.215Z,0.00
2019-01-23T19:11:39.213Z,0.00
2019-01-23T19:12:39.187Z,0.00
2019-01-23T19:13:39.208Z,0.00
2019-01-23T19:14:39.172Z,0.00
2019-01-23T19:15:39.145Z,0.00
2019-01-23T19:16:39.142Z,0.00
2019-01-23T19:17:39.120Z,0.00
2019-01-23T19:18:39.132Z,0.00
2019-01-23T19:19:39.104Z,0.00
2019-01-23T19:20:39.123Z,0.00
2019-01-23T19:21:39.112Z,0.00
2019-01-23T19:22:39.125Z,0.00
2019-01-23T19:23:39.056Z,0.00
2019-01-23T19:24:39.088Z,0.00
2019-01-23T19:25:39.058Z,0.00
2019-01-23T19:26:39.022Z,0.00
2019-01-23T19:27:39.016Z,0.00
2019-01-23T19:28:39.012Z,0.00
2019-01-23T19:29:39.006Z,0.00
2019-01-23T19:30:39.014Z,0.00
2019-01-23T19:31:38.968Z,0.00
2019-01-23T19:32:38.989Z,0.00
2019-01-23T19:33:38.951Z,0.00
2019-01-23T19:34:38.947Z,0.00
2019-01-23T19:35:38.959Z,0.00
2019-01-23T19:36:38.924Z,0.00
2019-01-23T19:37:38.914Z,0.00
2019-01-23T19:38:38.895Z,0.00
2019-01-23T19:39:38.909Z,0.00
2019-01-23T19:40:38.894Z,0.00
2019-01-23T19:41:38.861Z,0.00
2019-01-23T19:42:38.855Z,0.00
2019-01-23T19:43:38.855Z,0.00
2019-01-23T19:44:38.857Z,0.00
2019-01-23T19:45:38.833Z,0.00
2019-01-23T19:46:38.809Z,0.00
2019-01-23T19:47:38.843Z,0.00
2019-01-23T19:48:38.882Z,0.00
2019-01-23T19:49:38.796Z,0.00
2019-01-23T19:50:38.771Z,0.00
2019-01-23T19:51:38.801Z,0.00
2019-01-23T19:52:38.737Z,0.00
2019-01-23T19:53:38.748Z,0.00
2019-01-23T19:54:38.722Z,0.00
2019-01-23T19:55:38.705Z,0.00
2019-01-23T19:56:38.731Z,0.00
2019-01-23T19:57:38.722Z,0.00
2019-01-23T19:58:38.686Z,0.00
2019-01-23T19:59:38.679Z,0.00
2019-01-23T20:00:38.678Z,0.00
2019-01-23T20:01:38.680Z,0.00
2019-01-23T20:02:38.640Z,0.00
2019-01-23T20:03:38.622Z,0.00
2019-01-23T20:04:38.609Z,0.00
2019-01-23T20:05:38.619Z,0.00
2019-01-23T20:06:38.606Z,0.00
2019-01-23T20:07:38.577Z,0.00
2019-01-23T20:08:38.580Z,0.00
2019-01-23T20:09:38.570Z,0.00
2019-01-23T20:10:38.581Z,0.00
2019-01-23T20:11:38.581Z,0.00
2019-01-23T20:12:38.565Z,0.00
2019-01-23T20:13:38.526Z,0.00
2019-01-23T20:14:38.499Z,0.00
2019-01-23T20:15:38.524Z,0.00
2019-01-23T20:16:38.501Z,0.00
2019-01-23T20:17:38.497Z,0.00
2019-01-23T20:18:38.455Z,0.00
2019-01-23T20:19:38.449Z,0.00
2019-01-23T20:20:38.450Z,0.00
2019-01-23T20:21:38.423Z,0.00
2019-01-23T20:22:38.415Z,0.00
2019-01-23T20:23:38.413Z,0.00
2019-01-23T20:24:38.393Z,0.00
2019-01-23T20:25:38.424Z,0.00
2019-01-23T20:26:38.369Z,0.00
2019-01-23T20:27:38.361Z,0.00
2019-01-23T20:28:38.503Z,0.00
2019-01-23T20:29:38.336Z,0.00
2019-01-23T20:30:38.326Z,0.00
2019-01-23T20:31:38.343Z,0.00
2019-01-23T20:32:38.310Z,0.00
2019-01-23T20:33:38.292Z,0.00
2019-01-23T20:34:38.314Z,0.00
2019-01-23T20:35:38.270Z,0.00
2019-01-23T20:36:38.259Z,0.00
2019-01-23T20:37:38.253Z,0.00
2019-01-23T20:38:38.257Z,0.00
2019-01-23T20:39:38.225Z,0.00
2019-01-23T20:40:38.246Z,0.00
2019-01-23T20:41:38.205Z,0.00
2019-01-23T20:42:38.195Z,0.00
2019-01-23T20:43:38.203Z,0.00
2019-01-23T20:44:38.173Z,0.00
2019-01-23T20:45:38.161Z,0.00
2019-01-23T20:46:38.171Z,0.00
2019-01-23T20:47:38.143Z,0.00
2019-01-23T20:48:38.135Z,0.00
2019-01-23T20:49:38.123Z,0.00
2019-01-23T20:50:38.131Z,0.00
2019-01-23T20:51:38.102Z,0.00
2019-01-23T20:52:38.103Z,0.00
2019-01-23T20:53:38.078Z,0.00
2019-01-23T20:54:38.069Z,0.00
2019-01-23T20:55:38.326Z,0.00
2019-01-23T20:56:38.070Z,0.00
2019-01-23T20:57:38.050Z,0.00
2019-01-23T20:58:38.023Z,0.00
2019-01-23T20:59:38.014Z,0.00
2019-01-23T21:00:37.998Z,0.00
2019-01-23T21:01:37.990Z,0.00
2019-01-23T21:02:38.005Z,0.00
2019-01-23T21:03:37.981Z,0.00
2019-01-23T21:04:37.960Z,0.00
2019-01-23T21:05:37.951Z,0.00
2019-01-23T21:06:37.937Z,0.00
2019-01-23T21:07:37.926Z,0.00
2019-01-23T21:08:37.940Z,0.00
2019-01-23T21:09:37.925Z,0.00
2019-01-23T21:10:37.911Z,0.00
2019-01-23T21:11:37.929Z,0.00
2019-01-23T21:12:37.872Z,0.00
2019-01-23T21:13:37.860Z,0.00
2019-01-23T21:14:37.863Z,0.00
2019-01-23T21:15:37.841Z,0.00
2019-01-23T21:16:37.828Z,0.00
2019-01-23T21:17:37.865Z,0.00
2019-01-23T21:18:37.806Z,0.00
2019-01-23T21:19:37.809Z,0.00
2019-01-23T21:20:37.784Z,0.00
2019-01-23T21:21:37.776Z,0.00
2019-01-23T21:22:37.769Z,0.00
2019-01-23T21:23:37.765Z,0.00
2019-01-23T21:24:37.753Z,0.00
2019-01-23T21:25:37.729Z,0.00
2019-01-23T21:26:37.720Z,0.00
2019-01-23T21:27:37.710Z,0.00
2019-01-23T21:28:37.714Z,0.00
2019-01-23T21:29:37.688Z,0.00
2019-01-23T21:30:37.683Z,0.00
2019-01-23T21:31:37.680Z,0.00
2019-01-23T21:32:37.667Z,0.00
2019-01-23T21:33:42.083Z,0.00
2019-01-23T21:34:37.645Z,0.00
2019-01-23T21:35:37.622Z,0.00
2019-01-23T21:36:37.639Z,0.00
2019-01-23T21:37:37.604Z,0.00
2019-01-23T21:38:37.592Z,0.00
2019-01-23T21:39:37.623Z,0.00
2019-01-23T21:40:37.565Z,0.00
2019-01-23T21:41:37.556Z,0.00
2019-01-23T21:42:37.559Z,0.00
2019-01-23T21:43:37.562Z,0.00
2019-01-23T21:44:37.547Z,0.00
2019-01-23T21:45:37.545Z,0.00
2019-01-23T21:46:37.544Z,0.00
2019-01-23T21:47:37.534Z,0.00
2019-01-23T21:48:37.521Z,0.00
2019-01-23T21:49:37.471Z,0.00
2019-01-23T21:50:37.480Z,0.00
2019-01-23T21:51:37.452Z,0.00
2019-01-23T21:52:37.445Z,0.00
2019-01-23T21:53:37.449Z,0.00
2019-01-23T21:54:37.419Z,0.00
2019-01-23T21:55:37.406Z,0.00
2019-01-23T21:56:37.396Z,0.00
2019-01-23T21:57:37.397Z,0.00
2019-01-23T21:58:37.404Z,0.00
2019-01-23T21:59:37.432Z,0.00
2019-01-23T22:00:37.363Z,0.00
2019-01-23T22:01:37.342Z,0.00
2019-01-23T22:02:37.360Z,0.00
2019-01-23T22:03:37.359Z,0.00
2019-01-23T22:04:37.315Z,0.00
2019-01-23T22:05:37.319Z,0.00
2019-01-23T22:06:37.288Z,0.00
2019-01-23T22:07:37.274Z,0.00
2019-01-23T22:08:37.312Z,0.00
2019-01-23T22:09:37.279Z,0.00
2019-01-23T22:10:37.300Z,0.00
2019-01-23T22:11:43.221Z,0.00
2019-01-23T22:12:38.224Z,0.00
2019-01-23T22:13:37.217Z,0.00
2019-01-23T22:14:37.227Z,0.00
2019-01-23T22:15:37.191Z,0.00
2019-01-23T22:16:37.195Z,0.00
2019-01-23T22:17:37.174Z,0.00
2019-01-23T22:18:37.157Z,0.00
2019-01-23T22:19:37.156Z,0.00
2019-01-23T22:20:37.166Z,0.00
2019-01-23T22:21:37.124Z,0.00
2019-01-23T22:22:37.139Z,0.00
2019-01-23T22:23:37.109Z,0.00
2019-01-23T22:24:37.116Z,0.00
2019-01-23T22:25:37.093Z,0.00
2019-01-23T22:26:37.108Z,0.00
2019-01-23T22:27:37.080Z,0.00
2019-01-23T22:28:37.071Z,0.00
2019-01-23T22:29:37.041Z,0.00
2019-01-23T22:30:37.042Z,0.00
2019-01-23T22:31:37.055Z,0.00
2019-01-23T22:32:37.034Z,0.00
2019-01-23T22:33:37.007Z,0.00
2019-01-23T22:34:37.005Z,0.00
2019-01-23T22:35:36.996Z,0.00
2019-01-23T22:36:36.971Z,0.00
2019-01-23T22:37:36.963Z,0.00
2019-01-23T22:38:36.992Z,0.00
2019-01-23T22:39:36.959Z,0.00
2019-01-23T22:40:36.971Z,0.00
2019-01-23T22:41:36.923Z,0.00
2019-01-23T22:42:36.904Z,0.00
2019-01-23T22:43:36.887Z,0.00
2019-01-23T22:44:36.902Z,0.00
2019-01-23T22:45:36.864Z,0.00
2019-01-23T22:46:36.870Z,0.00
2019-01-23T22:47:36.872Z,0.00
2019-01-23T22:48:36.834Z,0.00
2019-01-23T22:49:36.828Z,0.00
2019-01-23T22:50:36.814Z,0.00
2019-01-23T22:51:36.812Z,0.00
2019-01-23T22:52:36.829Z,0.00
2019-01-23T22:53:36.780Z,0.00
2019-01-23T22:54:36.769Z,0.00
2019-01-23T22:55:36.755Z,0.00
2019-01-23T22:56:36.745Z,0.00
2019-01-23T22:57:36.738Z,0.00
2019-01-23T22:58:36.790Z,0.00
2019-01-23T22:59:36.712Z,0.00
2019-01-23T23:00:36.701Z,0.00
2019-01-23T23:01:36.693Z,0.00
2019-01-23T23:02:36.678Z,0.00
2019-01-23T23:03:36.672Z,0.00
2019-01-23T23:04:36.678Z,0.00
2019-01-23T23:05:36.655Z,0.00
2019-01-23T23:06:36.639Z,0.00
2019-01-23T23:07:36.627Z,0.00
2019-01-23T23:08:36.619Z,0.00
2019-01-23T23:09:36.602Z,0.00
2019-01-23T23:10:36.605Z,0.00
2019-01-23T23:11:36.589Z,0.00
2019-01-23T23:12:36.583Z,0.00
2019-01-23T23:13:36.560Z,0.00
2019-01-23T23:14:36.549Z,0.00
2019-01-23T23:15:36.555Z,0.00
2019-01-23T23:16:36.528Z,0.00
2019-01-23T23:17:36.616Z,0.00
2019-01-23T23:18:36.610Z,0.00
2019-01-23T23:19:36.502Z,0.00
2019-01-23T23:20:36.483Z,0.00
2019-01-23T23:21:36.486Z,0.00
2019-01-23T23:22:36.465Z,0.00
2019-01-23T23:23:36.470Z,0.00
2019-01-23T23:24:36.472Z,0.00
2019-01-23T23:25:36.432Z,0.00
2019-01-23T23:26:36.483Z,0.00
2019-01-23T23:27:39.493Z,0.00
2019-01-23T23:28:36.397Z,0.00
2019-01-23T23:29:36.406Z,0.00
2019-01-23T23:30:36.377Z,0.00
2019-01-23T23:31:36.365Z,0.00
2019-01-23T23:32:36.377Z,0.00
2019-01-23T23:33:36.341Z,0.00
2019-01-23T23:34:36.330Z,0.00
2019-01-23T23:35:36.340Z,0.00
2019-01-23T23:36:36.311Z,0.00
2019-01-23T23:37:36.307Z,0.00
2019-01-23T23:38:36.310Z,0.00
2019-01-23T23:39:36.327Z,0.00
2019-01-23T23:40:36.269Z,0.00
2019-01-23T23:41:36.294Z,0.00
2019-01-23T23:42:36.291Z,0.00
2019-01-23T23:43:36.257Z,0.00